Time,TemperatureF,DewpointF,PressureIn,WindDirection,WindDirectionDegrees,WindSpeedMPH,WindSpeedGustMPH,Humidity,HourlyPrecipIn,Conditions,Clouds,dailyrainin,SoftwareType,DateUTC
2013-09-21 00:12:00,57.3,55.0,29.96,NNE,32,0.0,0.0,90,0.00,,,0.00,weatherlink.com 1.10,2013-09-21 04:12:00,
2013-09-21 00:27:00,56.8,55.0,29.95,NNE,32,0.0,0.0,92,0.00,,,0.00,weatherlink.com 1.10,2013-09-21 04:27:00,
2013-09-21 00:42:00,56.4,54.0,29.95,NNE,32,0.0,0.0,92,0.00,,,0.00,weatherlink.com 1.10,2013-09-21 04:42:00,
2013-09-21 00:57:00,56.1,54.0,29.95,NNE,32,0.0,0.0,92,0.00,,,0.00,weatherlink.com 1.10,2013-09-21 04:57:00,
2013-09-21 01:12:00,55.7,54.0,29.96,NNE,32,0.0,0.0,92,0.00,,,0.00,weatherlink.com 1.10,2013-09-21 05:12:00,
2013-09-21 01:27:00,55.5,54.0,29.95,NNE,32,0.0,0.0,93,0.00,,,0.00,weatherlink.com 1.10,2013-09-21 05:27:00,
2013-09-21 01:42:00,55.3,54.0,29.95,NNE,32,0.0,0.0,94,0.00,,,0.00,weatherlink.com 1.10,2013-09-21 05:42:00,
2013-09-21 01:57:00,55.4,54.0,29.94,NNE,32,0.0,1.0,96,0.00,,,0.00,weatherlink.com 1.10,2013-09-21 05:57:00,
2013-09-21 02:12:00,55.8,55.0,29.95,NNE,32,0.0,0.0,96,0.00,,,0.00,weatherlink.com 1.10,2013-09-21 06:12:00,
2013-09-21 02:27:00,56.2,55.0,29.94,NNE,32,0.0,0.0,96,0.00,,,0.00,weatherlink.com 1.10,2013-09-21 06:27:00,
2013-09-21 02:42:00,56.2,55.0,29.93,NNE,32,0.0,0.0,95,0.00,,,0.00,weatherlink.com 1.10,2013-09-21 06:42:00,
2013-09-21 02:57:00,56.0,55.0,29.93,NNE,32,0.0,0.0,95,0.00,,,0.00,weatherlink.com 1.10,2013-09-21 06:57:00,
2013-09-21 03:12:00,55.5,54.0,29.92,NNE,32,0.0,0.0,94,0.00,,,0.00,weatherlink.com 1.10,2013-09-21 07:12:00,
2013-09-21 03:27:00,55.2,54.0,29.91,NNE,32,0.0,0.0,95,0.00,,,0.00,weatherlink.com 1.10,2013-09-21 07:27:00,
2013-09-21 03:42:00,55.2,54.0,29.91,NNE,32,0.0,0.0,96,0.00,,,0.00,weatherlink.com 1.10,2013-09-21 07:42:00,
2013-09-21 03:57:00,55.1,54.0,29.91,NNE,32,0.0,0.0,95,0.00,,,0.00,weatherlink.com 1.10,2013-09-21 07:57:00,
2013-09-21 04:12:00,55.1,54.0,29.91,NNE,32,0.0,0.0,96,0.00,,,0.00,weatherlink.com 1.10,2013-09-21 08:12:00,
2013-09-21 04:27:00,55.4,55.0,29.91,NNE,32,0.0,1.0,97,0.00,,,0.00,weatherlink.com 1.10,2013-09-21 08:27:00,
2013-09-21 04:42:00,55.4,55.0,29.91,NNE,32,0.0,1.0,97,0.00,,,0.00,weatherlink.com 1.10,2013-09-21 08:42:00,
2013-09-21 04:57:00,55.3,54.0,29.91,NNE,32,0.0,0.0,96,0.01,,,0.01,weatherlink.com 1.10,2013-09-21 08:57:00,
2013-09-21 05:12:00,55.1,54.0,29.91,NNE,32,0.0,0.0,96,0.01,,,0.01,weatherlink.com 1.10,2013-09-21 09:12:00,
2013-09-21 05:27:00,55.1,54.0,29.91,NNE,32,0.0,0.0,97,0.01,,,0.01,weatherlink.com 1.10,2013-09-21 09:27:00,
2013-09-21 05:42:00,55.3,55.0,29.91,NNE,19,0.0,1.0,97,0.01,,,0.01,weatherlink.com 1.10,2013-09-21 09:42:00,
2013-09-21 05:57:00,55.5,55.0,29.91,NNE,19,0.0,1.0,97,0.00,,,0.01,weatherlink.com 1.10,2013-09-21 09:57:00,
2013-09-21 06:12:00,55.7,55.0,29.91,NNE,19,0.0,0.0,97,0.00,,,0.01,weatherlink.com 1.10,2013-09-21 10:12:00,
2013-09-21 06:27:00,55.7,55.0,29.91,NNE,19,0.0,1.0,97,0.00,,,0.01,weatherlink.com 1.10,2013-09-21 10:27:00,
2013-09-21 06:42:00,55.7,55.0,29.91,NNE,19,0.0,2.0,97,0.00,,,0.01,weatherlink.com 1.10,2013-09-21 10:42:00,
2013-09-21 06:57:00,55.7,55.0,29.91,NNE,19,0.0,0.0,97,0.00,,,0.01,weatherlink.com 1.10,2013-09-21 10:57:00,
2013-09-21 07:12:00,55.7,55.0,29.91,NNE,19,0.0,0.0,97,0.00,,,0.01,weatherlink.com 1.10,2013-09-21 11:12:00,
2013-09-21 07:27:00,55.7,55.0,29.91,NNE,19,0.0,1.0,97,0.00,,,0.01,weatherlink.com 1.10,2013-09-21 11:27:00,
2013-09-21 07:42:00,55.7,55.0,29.90,NNE,19,0.0,0.0,97,0.00,,,0.01,weatherlink.com 1.10,2013-09-21 11:42:00,
2013-09-21 07:57:00,55.8,55.0,29.89,NNE,19,0.0,0.0,97,0.00,,,0.01,weatherlink.com 1.10,2013-09-21 11:57:00,
2013-09-21 08:13:00,56.3,56.0,29.89,NNE,19,0.0,1.0,97,0.00,,,0.01,weatherlink.com 1.10,2013-09-21 12:13:00,
2013-09-21 08:28:00,56.9,56.0,29.89,WSW,250,0.0,2.0,96,0.00,,,0.01,weatherlink.com 1.10,2013-09-21 12:28:00,
2013-09-21 08:43:00,57.2,56.0,29.89,West,262,2.0,2.0,95,0.00,,,0.01,weatherlink.com 1.10,2013-09-21 12:43:00,
2013-09-21 08:58:00,57.1,56.0,29.89,SW,225,0.0,1.0,95,0.00,,,0.01,weatherlink.com 1.10,2013-09-21 12:58:00,
2013-09-21 09:13:00,57.5,56.0,29.89,SW,225,0.0,1.0,95,0.00,,,0.01,weatherlink.com 1.10,2013-09-21 13:13:00,
2013-09-21 09:28:00,57.3,56.0,29.88,SW,225,0.0,2.0,94,0.00,,,0.01,weatherlink.com 1.10,2013-09-21 13:28:00,
2013-09-21 09:43:00,57.5,56.0,29.87,SW,223,0.0,1.0,95,0.00,,,0.01,weatherlink.com 1.10,2013-09-21 13:43:00,
2013-09-21 09:58:00,58.6,57.0,29.87,SSW,201,0.0,2.0,94,0.00,,,0.01,weatherlink.com 1.10,2013-09-21 13:58:00,
2013-09-21 10:13:00,58.9,57.0,29.86,NNW,329,0.0,3.0,92,0.00,,,0.01,weatherlink.com 1.10,2013-09-21 14:13:00,
2013-09-21 10:28:00,60.5,57.0,29.86,South,169,1.0,5.0,89,0.00,,,0.01,weatherlink.com 1.10,2013-09-21 14:28:00,
2013-09-21 10:43:00,60.8,57.0,29.86,SSE,148,2.0,3.0,88,0.00,,,0.01,weatherlink.com 1.10,2013-09-21 14:43:00,
2013-09-21 10:58:00,61.8,57.0,29.85,South,174,2.0,3.0,84,0.00,,,0.01,weatherlink.com 1.10,2013-09-21 14:58:00,
2013-09-21 11:13:00,62.5,56.0,29.84,SSW,209,1.0,5.0,79,0.00,,,0.01,weatherlink.com 1.10,2013-09-21 15:13:00,
2013-09-21 11:28:00,63.5,55.0,29.84,SSW,211,5.0,7.0,75,0.00,,,0.01,weatherlink.com 1.10,2013-09-21 15:28:00,
2013-09-21 11:43:00,63.7,56.0,29.84,SSW,198,1.0,5.0,75,0.00,,,0.01,weatherlink.com 1.10,2013-09-21 15:43:00,
2013-09-21 11:58:00,64.1,56.0,29.83,SE,135,3.0,5.0,76,0.00,,,0.01,weatherlink.com 1.10,2013-09-21 15:58:00,
2013-09-21 12:13:00,65.3,57.0,29.83,SSW,192,3.0,5.0,75,0.00,,,0.01,weatherlink.com 1.10,2013-09-21 16:13:00,
2013-09-21 12:28:00,65.3,57.0,29.82,SSW,194,4.0,7.0,75,0.01,,,0.02,weatherlink.com 1.10,2013-09-21 16:28:00,
2013-09-21 12:43:00,65.3,58.0,29.81,SSW,203,5.0,7.0,76,0.01,,,0.02,weatherlink.com 1.10,2013-09-21 16:43:00,
2013-09-21 12:58:00,66.2,59.0,29.81,South,181,2.0,9.0,77,0.01,,,0.02,weatherlink.com 1.10,2013-09-21 16:58:00,
2013-09-21 13:13:00,65.6,59.0,29.80,South,170,2.0,7.0,79,0.01,,,0.02,weatherlink.com 1.10,2013-09-21 17:13:00,
2013-09-21 13:28:00,66.0,60.0,29.79,South,186,1.0,5.0,80,0.00,,,0.02,weatherlink.com 1.10,2013-09-21 17:28:00,
2013-09-21 13:43:00,67.6,60.0,29.78,SSW,213,3.0,6.0,76,0.00,,,0.02,weatherlink.com 1.10,2013-09-21 17:43:00,
2013-09-21 13:58:00,67.2,61.0,29.77,SSW,195,1.0,7.0,80,0.00,,,0.02,weatherlink.com 1.10,2013-09-21 17:58:00,
2013-09-21 14:13:00,66.5,60.0,29.77,SSW,204,3.0,7.0,80,0.00,,,0.02,weatherlink.com 1.10,2013-09-21 18:13:00,
2013-09-21 14:28:00,66.3,61.0,29.76,SSE,166,2.0,4.0,82,0.00,,,0.02,weatherlink.com 1.10,2013-09-21 18:28:00,
2013-09-21 14:44:00,67.0,61.0,29.75,SW,221,2.0,4.0,80,0.00,,,0.02,weatherlink.com 1.10,2013-09-21 18:44:00,
2013-09-21 14:59:00,67.7,61.0,29.74,SW,234,3.0,4.0,78,0.00,,,0.02,weatherlink.com 1.10,2013-09-21 18:59:00,
2013-09-21 15:14:00,67.4,61.0,29.73,SSW,200,1.0,4.0,80,0.00,,,0.02,weatherlink.com 1.10,2013-09-21 19:14:00,
2013-09-21 15:29:00,67.3,61.0,29.72,South,186,2.0,4.0,80,0.00,,,0.02,weatherlink.com 1.10,2013-09-21 19:29:00,
2013-09-21 15:44:00,67.6,61.0,29.71,SW,231,3.0,4.0,80,0.00,,,0.02,weatherlink.com 1.10,2013-09-21 19:44:00,
2013-09-21 15:59:00,67.3,62.0,29.71,SW,236,2.0,4.0,82,0.00,,,0.02,weatherlink.com 1.10,2013-09-21 19:59:00,
2013-09-21 16:14:00,67.3,62.0,29.70,SSW,204,2.0,3.0,82,0.00,,,0.02,weatherlink.com 1.10,2013-09-21 20:14:00,
2013-09-21 16:29:00,67.7,62.0,29.70,SSW,211,4.0,5.0,82,0.00,,,0.02,weatherlink.com 1.10,2013-09-21 20:29:00,
2013-09-21 16:44:00,67.4,62.0,29.70,East,93,0.0,5.0,83,0.01,,,0.03,weatherlink.com 1.10,2013-09-21 20:44:00,
2013-09-21 16:59:00,67.4,62.0,29.70,SSW,213,0.0,3.0,83,0.01,,,0.03,weatherlink.com 1.10,2013-09-21 20:59:00,
2013-09-21 17:14:00,67.4,62.0,29.69,South,189,0.0,3.0,84,0.01,,,0.03,weatherlink.com 1.10,2013-09-21 21:14:00,
2013-09-21 17:29:00,67.6,62.0,29.68,SE,146,0.0,2.0,83,0.01,,,0.03,weatherlink.com 1.10,2013-09-21 21:29:00,
2013-09-21 17:44:00,67.2,62.0,29.68,SSW,202,0.0,2.0,84,0.00,,,0.03,weatherlink.com 1.10,2013-09-21 21:44:00,
2013-09-21 17:59:00,66.7,62.0,29.67,SW,215,1.0,4.0,85,0.00,,,0.03,weatherlink.com 1.10,2013-09-21 21:59:00,
2013-09-21 18:14:00,66.9,62.0,29.67,SSE,150,2.0,3.0,85,0.00,,,0.03,weatherlink.com 1.10,2013-09-21 22:14:00,
2013-09-21 18:29:00,66.6,63.0,29.67,SW,218,1.0,4.0,87,0.00,,,0.03,weatherlink.com 1.10,2013-09-21 22:29:00,
2013-09-21 18:44:00,66.2,63.0,29.67,SSW,204,0.0,3.0,88,0.00,,,0.03,weatherlink.com 1.10,2013-09-21 22:44:00,
2013-09-21 18:59:00,66.1,63.0,29.67,SSW,203,0.0,4.0,88,0.00,,,0.03,weatherlink.com 1.10,2013-09-21 22:59:00,
2013-09-21 19:14:00,65.8,63.0,29.67,South,184,0.0,2.0,89,0.00,,,0.03,weatherlink.com 1.10,2013-09-21 23:14:00,
2013-09-21 19:29:00,65.7,62.0,29.67,SW,232,0.0,3.0,89,0.00,,,0.03,weatherlink.com 1.10,2013-09-21 23:29:00,
2013-09-21 19:44:00,65.7,63.0,29.67,ESE,106,0.0,3.0,90,0.00,,,0.03,weatherlink.com 1.10,2013-09-21 23:44:00,
2013-09-21 19:59:00,65.5,63.0,29.67,SW,221,3.0,5.0,90,0.00,,,0.03,weatherlink.com 1.10,2013-09-21 23:59:00,
2013-09-21 20:14:00,65.1,63.0,29.67,SW,221,1.0,3.0,93,0.00,,,0.03,weatherlink.com 1.10,2013-09-22 00:14:00,
2013-09-21 20:29:00,64.5,63.0,29.66,WSW,239,0.0,3.0,94,0.00,,,0.03,weatherlink.com 1.10,2013-09-22 00:29:00,
2013-09-21 20:44:00,63.8,62.0,29.66,WSW,239,1.0,3.0,95,0.00,,,0.03,weatherlink.com 1.10,2013-09-22 00:44:00,
2013-09-21 20:59:00,63.2,62.0,29.66,SSW,201,0.0,2.0,95,0.00,,,0.03,weatherlink.com 1.10,2013-09-22 00:59:00,
2013-09-21 21:14:00,62.9,62.0,29.65,South,182,0.0,3.0,96,0.00,,,0.03,weatherlink.com 1.10,2013-09-22 01:14:00,
2013-09-21 21:29:00,62.8,62.0,29.65,SSW,194,0.0,3.0,96,0.00,,,0.03,weatherlink.com 1.10,2013-09-22 01:29:00,
2013-09-21 21:44:00,62.7,62.0,29.64,SW,233,4.0,4.0,97,0.00,,,0.03,weatherlink.com 1.10,2013-09-22 01:44:00,
2013-09-21 21:59:00,62.7,62.0,29.64,SSW,195,0.0,7.0,97,0.00,,,0.03,weatherlink.com 1.10,2013-09-22 01:59:00,
2013-09-21 22:14:00,62.8,62.0,29.63,SSW,195,1.0,2.0,97,0.00,,,0.03,weatherlink.com 1.10,2013-09-22 02:14:00,
2013-09-21 22:29:00,62.8,62.0,29.63,NE,45,0.0,3.0,97,0.01,,,0.04,weatherlink.com 1.10,2013-09-22 02:29:00,
2013-09-21 22:44:00,62.8,62.0,29.62,WNW,303,0.0,4.0,98,0.01,,,0.04,weatherlink.com 1.10,2013-09-22 02:44:00,
2013-09-21 22:59:00,62.9,62.0,29.62,South,177,0.0,2.0,98,0.01,,,0.04,weatherlink.com 1.10,2013-09-22 02:59:00,
2013-09-21 23:14:00,62.9,62.0,29.61,South,170,0.0,2.0,98,0.01,,,0.04,weatherlink.com 1.10,2013-09-22 03:14:00,
2013-09-21 23:29:00,62.7,62.0,29.61,SSE,157,2.0,4.0,98,0.00,,,0.04,weatherlink.com 1.10,2013-09-22 03:29:00,
2013-09-21 23:44:00,61.4,60.0,29.63,East,84,1.0,5.0,95,0.00,,,0.04,weatherlink.com 1.10,2013-09-22 03:44:00,
2013-09-21 23:59:00,59.9,58.0,29.61,ESE,103,0.0,5.0,93,0.00,,,0.04,weatherlink.com 1.10,2013-09-22 03:59:00,